Arletta, Washington
Current Conditions -  °F | °C
As of 12:53 AM on Wednesday 22 Oct 2014 (Local Time) from KTIW Reporting Station
Light Rain Light Rain  
Wind Chill: 14°   Ceiling: 5500
Heat Index: 14°   Visibility: 10mi
Dew Point:   Wind: 15mph
Humidity: 65%   Direction: 180°S
Pressure: 29.72"   Gusts: 23mph
Location:  47.2986°N, 122.616°W
Report Text: KTIW 220753Z AUTO 18013G20KT 10SM -RA OVC055 14/08 A2972 RMK AO2 RAB10E25B52 SLP064 P0000 T01440078 401670117
Loading
Personal Weather Stations






























Interactive Weather Map
Tropical Storm Tracking
New forecast layout! Learn more

10-Day Weather Forecast

Advertisements
Track Severe Weather on mobile